INFORMACIÓN METAR y TAF
METAR FOR LELN
ADDS - METARS form results

(2328 UTC 01 June 2020)
Data provider http://aviationweather.gov/metar/data/
 
METAR text: LELN 012300Z AUTO 34005KT CAVOK 17/11 Q1017
Conditions at: LELN (LEON/VIRGEN CAMI, ES) observed 2300 UTC 01 June 2020
Temperature: 17.0°C (63°F)
Dewpoint: 11.0°C (52°F) [RH = 68%]
Pressure (altimeter): 30.03 inches Hg (1017.0 mb)
Winds: from the NNW (340 degrees) at 6 MPH (5 knots; 2.6 m/s)
Visibility: 6 or more miles (10+ km)
Ceiling: ceiling and visibility are OK
Clouds: unknown
Weather: no significant weather observed at this time

METAR text: LELN 012230Z AUTO 35005KT CAVOK 18/11 Q1017
Conditions at: LELN (LEON/VIRGEN CAMI, ES) observed 2230 UTC 01 June 2020
Temperature: 18.0°C (64°F)
Dewpoint: 11.0°C (52°F) [RH = 64%]
Pressure (altimeter): 30.03 inches Hg (1017.0 mb)
Winds: from the N (350 degrees) at 6 MPH (5 knots; 2.6 m/s)
Visibility: 6 or more miles (10+ km)
Ceiling: ceiling and visibility are OK
Clouds: unknown
Weather: no significant weather observed at this time

Forecast for: LELN (LEON/VIRGEN CAMI, ES)
Text: TAF LELN 011700Z 0118/0203 VRB05KT 9999 FEW040
Forecast period: 1800 UTC 01 June 2020 to 0300 UTC 02 June 2020
Forecast type: FROM: standard forecast or significant change
Winds: variable direction winds at 6 MPH (5 knots; 2.6 m/s)
Visibility: 6 or more miles 10+ km)
Ceiling: at least 12,000 feet AGL
Clouds: few clouds at 4000 feet AGL
Weather: no significant weather forecast for this period
Text: TEMPO 0118/0124 01010KT FEW040TCU
Forecast period: 1800 UTC 01 June 2020 to 0000 UTC 02 June 2020
Forecast type: TEMPORARY: The following changes expected for less than half the time period
Winds: from the N (10 degrees) at 12 MPH (10 knots; 5.1 m/s)
Visibility: missing
Ceiling: at least 12,000 feet AGL
Clouds: few clouds at 4000 feet AGL
Weather: no significant weather forecast for this period
Text: PROB30
Forecast period: 1800 UTC 01 June 2020 to 0000 UTC 02 June 2020
Forecast type: TEMPORARY: The following changes expected for less than half the time period
Visibility: missing
Ceiling: at least 12,000 feet AGL
Clouds: scattered clouds at 4000 feet AGL
Weather: TSRA  (rain associated with thunderstorm(s))

 MAPA DE AEROPUERTO

 INFORMACIÓN DE PISTA
Pista 05 Longitud 6890 ft Ancho 148 ft
Elevación 2994 ft Umbral desplazado 0 ft Rumbo de pista 45
Pista 23 Longitud 6890 ft Ancho 148 ft
Elevación 3001 ft Umbral desplazado 0 ft Rumbo de pista 225
Pista 06 Longitud 3609 ft Ancho 328 ft
Elevación 3034 ft Umbral desplazado 0 ft Rumbo de pista 60
Pista 24 Longitud 3609 ft Ancho 328 ft
Elevación 3000 ft Umbral desplazado 0 ft Rumbo de pista 240

 FRECUANCIAS DEL AEROPUERTO
Tipo APP Nombre APP Frecuencia 122.1 MHZ
Tipo TWR Nombre TWR Frecuencia 122.1 MHZ

 RADIO AYUDAS DEL AEROPUERTO
Tipo VOR-DME Nombre Leon Frecuencia 112000 KHZ
Tipo NDB Nombre Leon Frecuencia 330 KHZ




Powered by Virtual Airlines Manager